createdAt,value
2019-05-19T00:01:00.236Z,44.30
2019-05-19T00:03:27.436Z,44.23
2019-05-19T00:05:54.632Z,45.37
2019-05-19T00:08:21.836Z,50.10
2019-05-19T00:10:49.012Z,45.60
2019-05-19T00:13:16.206Z,48.73
2019-05-19T00:15:43.405Z,47.40
2019-05-19T00:18:10.660Z,47.40
2019-05-19T00:20:37.853Z,42.20
2019-05-19T00:23:05.052Z,37.67
2019-05-19T00:25:33.017Z,41.67
2019-05-19T00:28:00.292Z,44.90
2019-05-19T00:30:27.509Z,46.77
2019-05-19T00:32:54.781Z,60.70
2019-05-19T00:35:22.033Z,44.60
2019-05-19T00:37:49.309Z,49.60
2019-05-19T00:40:16.501Z,44.57
2019-05-19T00:42:43.696Z,51.50
2019-05-19T00:45:11.087Z,50.60
2019-05-19T00:47:38.584Z,52.43
2019-05-19T00:50:06.837Z,47.90
2019-05-19T00:52:34.124Z,47.53
2019-05-19T00:55:01.321Z,49.93
2019-05-19T00:57:29.101Z,44.87
2019-05-19T00:59:56.708Z,52.77
2019-05-19T01:02:23.885Z,47.50
2019-05-19T01:04:51.081Z,53.40
2019-05-19T01:07:18.576Z,50.90
2019-05-19T01:09:45.768Z,44.93
2019-05-19T01:12:12.950Z,48.40
2019-05-19T01:14:40.141Z,44.00
2019-05-19T01:17:07.310Z,46.33
2019-05-19T01:19:34.500Z,57.20
2019-05-19T01:22:01.792Z,46.23
2019-05-19T01:24:28.977Z,44.50
2019-05-19T01:26:56.285Z,38.73
2019-05-19T01:29:25.393Z,41.20
2019-05-19T01:31:52.680Z,44.70
2019-05-19T01:34:19.873Z,46.70
2019-05-19T01:36:47.076Z,40.53
2019-05-19T01:39:14.268Z,40.67
2019-05-19T01:41:41.452Z,49.10
2019-05-19T01:44:08.631Z,53.47
2019-05-19T01:46:35.837Z,46.27
2019-05-19T01:49:03.113Z,51.90
2019-05-19T01:51:30.308Z,55.07
2019-05-19T01:53:57.512Z,51.67
2019-05-19T01:56:24.741Z,49.10
2019-05-19T01:58:51.929Z,53.13
2019-05-19T02:01:19.130Z,52.53
2019-05-19T02:03:46.316Z,61.27
2019-05-19T02:06:13.503Z,60.93
2019-05-19T02:08:40.706Z,58.73
2019-05-19T02:11:07.900Z,67.43
2019-05-19T02:13:35.296Z,58.00
2019-05-19T02:16:02.470Z,60.40
2019-05-19T02:18:31.553Z,67.00
2019-05-19T02:20:58.747Z,70.20
2019-05-19T02:23:25.948Z,62.87
2019-05-19T02:25:53.168Z,61.67
2019-05-19T02:28:20.354Z,72.40
2019-05-19T02:30:47.621Z,67.73
2019-05-19T02:33:14.864Z,63.57
2019-05-19T02:35:42.104Z,68.23
2019-05-19T02:38:09.309Z,61.10
2019-05-19T02:40:39.299Z,68.93
2019-05-19T02:43:07.385Z,63.90
2019-05-19T02:45:35.465Z,63.17
2019-05-19T02:48:02.855Z,58.37
2019-05-19T02:50:31.155Z,59.60
2019-05-19T02:52:59.767Z,66.87
2019-05-19T02:55:27.763Z,55.37
2019-05-19T02:57:55.453Z,60.27
2019-05-19T03:00:36.903Z,59.33
2019-05-19T03:03:04.852Z,62.03
2019-05-19T03:05:32.029Z,60.80
2019-05-19T03:07:59.120Z,54.70
2019-05-19T03:10:26.318Z,56.87
2019-05-19T03:12:53.531Z,58.50
2019-05-19T03:15:20.830Z,50.40
2019-05-19T03:17:48.023Z,53.57
2019-05-19T03:20:15.189Z,63.03
2019-05-19T03:22:42.380Z,64.00
2019-05-19T03:25:09.572Z,64.90
2019-05-19T03:27:36.781Z,72.30
2019-05-19T03:30:22.378Z,68.30
2019-05-19T03:32:54.006Z,64.10
2019-05-19T03:35:21.226Z,62.53
2019-05-19T03:37:48.422Z,64.47
2019-05-19T03:40:21.624Z,65.03
2019-05-19T03:42:50.189Z,64.13
2019-05-19T03:45:17.385Z,69.83
2019-05-19T03:47:44.601Z,70.00
2019-05-19T03:50:11.804Z,77.50
2019-05-19T03:52:38.984Z,66.93
2019-05-19T03:55:06.205Z,57.67
2019-05-19T03:57:33.392Z,62.30
2019-05-19T04:00:00.583Z,56.60
2019-05-19T04:02:27.762Z,63.13
2019-05-19T04:04:54.957Z,66.07
2019-05-19T04:07:22.137Z,57.57
2019-05-19T04:09:51.162Z,67.27
2019-05-19T04:12:18.430Z,66.23
2019-05-19T04:14:45.618Z,65.90
2019-05-19T04:17:12.806Z,62.60
2019-05-19T04:19:40.010Z,66.40
2019-05-19T04:22:07.196Z,67.43
2019-05-19T04:24:38.168Z,68.73
2019-05-19T04:27:05.365Z,61.23
2019-05-19T04:29:32.538Z,65.73
2019-05-19T04:31:59.725Z,58.70
2019-05-19T04:34:26.945Z,63.77
2019-05-19T04:36:54.537Z,74.17
2019-05-19T04:39:21.723Z,66.07
2019-05-19T04:41:48.938Z,69.93
2019-05-19T04:44:16.124Z,63.50
2019-05-19T04:46:43.341Z,59.50
2019-05-19T04:49:10.548Z,70.10
2019-05-19T04:51:37.716Z,63.87
2019-05-19T04:54:04.904Z,64.33
2019-05-19T04:56:32.109Z,59.90
2019-05-19T04:58:59.403Z,58.23
2019-05-19T05:01:26.597Z,55.13
2019-05-19T05:03:53.789Z,53.50
2019-05-19T05:06:21.063Z,55.13
2019-05-19T05:08:48.257Z,56.63
2019-05-19T05:11:15.441Z,56.13
2019-05-19T05:13:44.153Z,59.07
2019-05-19T05:16:11.344Z,54.30
2019-05-19T05:18:38.550Z,50.97
2019-05-19T05:21:05.721Z,55.43
2019-05-19T05:23:32.916Z,53.00
2019-05-19T05:26:00.148Z,59.70
2019-05-19T05:28:27.349Z,53.43
2019-05-19T05:30:54.552Z,49.80
2019-05-19T05:33:21.748Z,52.30
2019-05-19T05:35:48.920Z,53.70
2019-05-19T05:38:16.148Z,53.27
2019-05-19T05:40:43.444Z,51.40
2019-05-19T05:43:10.649Z,51.03
2019-05-19T05:45:37.852Z,50.30
2019-05-19T05:48:05.081Z,49.67
2019-05-19T05:50:32.246Z,49.23
2019-05-19T05:52:59.447Z,45.43
2019-05-19T05:55:26.648Z,48.40
2019-05-19T05:57:53.873Z,48.37
2019-05-19T06:00:22.965Z,49.47
2019-05-19T06:02:50.171Z,50.90
2019-05-19T06:05:17.510Z,45.47
2019-05-19T06:07:44.649Z,47.70
2019-05-19T06:10:12.026Z,45.30
2019-05-19T06:12:39.224Z,50.27
2019-05-19T06:15:06.959Z,52.47
2019-05-19T06:17:34.237Z,47.60
2019-05-19T06:20:01.425Z,49.20
2019-05-19T06:22:28.722Z,45.53
2019-05-19T06:24:58.989Z,46.40
2019-05-19T06:27:25.006Z,49.70
2019-05-19T06:29:52.206Z,42.93
2019-05-19T06:32:29.257Z,44.80
2019-05-19T06:34:56.434Z,44.93
2019-05-19T06:37:23.632Z,47.27
2019-05-19T06:39:50.856Z,45.80
2019-05-19T06:42:18.056Z,47.80
2019-05-19T06:44:45.235Z,43.73
2019-05-19T06:47:12.421Z,40.20
2019-05-19T06:49:39.620Z,38.97
2019-05-19T06:52:06.791Z,37.53
2019-05-19T06:54:34.112Z,31.87
2019-05-19T06:57:01.285Z,39.30
2019-05-19T06:59:29.288Z,34.43
2019-05-19T07:01:56.489Z,33.57
2019-05-19T07:04:23.671Z,33.67
2019-05-19T07:06:50.892Z,31.37
2019-05-19T07:09:18.169Z,33.13
2019-05-19T07:11:45.396Z,31.07
2019-05-19T07:14:12.631Z,33.00
2019-05-19T07:16:39.908Z,32.17
2019-05-19T07:19:07.100Z,28.30
2019-05-19T07:21:34.325Z,32.17
2019-05-19T07:24:01.509Z,29.60
2019-05-19T07:26:28.709Z,31.40
2019-05-19T07:28:58.875Z,34.43
2019-05-19T07:31:25.005Z,32.23
2019-05-19T07:33:52.180Z,33.00
2019-05-19T07:36:19.384Z,28.33
2019-05-19T07:38:46.665Z,32.03
2019-05-19T07:41:13.892Z,32.90
2019-05-19T07:43:41.077Z,27.17
2019-05-19T07:46:08.280Z,38.87
2019-05-19T07:48:35.458Z,35.97
2019-05-19T07:51:02.723Z,44.40
2019-05-19T07:53:42.198Z,30.80
2019-05-19T07:55:59.168Z,35.07
2019-05-19T07:58:26.741Z,31.00
2019-05-19T08:00:53.936Z,37.33
2019-05-19T08:03:21.151Z,30.43
2019-05-19T08:05:48.320Z,26.17
2019-05-19T08:08:15.535Z,27.63
2019-05-19T08:10:42.869Z,27.80
2019-05-19T08:13:10.117Z,38.00
2019-05-19T08:15:37.320Z,38.00
2019-05-19T08:18:04.501Z,37.20
2019-05-19T08:20:31.790Z,30.67
2019-05-19T08:22:58.880Z,27.40
2019-05-19T08:25:26.078Z,30.67
2019-05-19T08:27:53.284Z,26.53
2019-05-19T08:30:20.772Z,30.00
2019-05-19T08:32:47.944Z,25.70
2019-05-19T08:35:15.748Z,26.27
2019-05-19T08:37:42.950Z,24.70
2019-05-19T08:40:10.138Z,25.80
2019-05-19T08:42:37.344Z,24.97
2019-05-19T08:45:04.994Z,23.90
2019-05-19T08:47:32.192Z,23.37
2019-05-19T08:49:59.415Z,17.20
2019-05-19T08:52:26.614Z,21.47
2019-05-19T08:54:53.908Z,20.57
2019-05-19T08:57:21.392Z,17.13
2019-05-19T08:59:48.583Z,21.60
2019-05-19T09:02:15.776Z,18.03
2019-05-19T09:04:42.973Z,20.83
2019-05-19T09:07:10.178Z,23.83
2019-05-19T09:09:37.795Z,22.80
2019-05-19T09:12:05.028Z,23.67
2019-05-19T09:14:32.894Z,27.23
2019-05-19T09:17:00.403Z,20.17
2019-05-19T09:19:27.897Z,21.60
2019-05-19T09:21:55.080Z,20.03
2019-05-19T09:24:29.950Z,21.63
2019-05-19T09:26:51.396Z,20.07
2019-05-19T09:29:18.657Z,22.73
2019-05-19T09:31:45.865Z,23.33
2019-05-19T09:34:13.080Z,20.90
2019-05-19T09:36:40.271Z,23.23
2019-05-19T09:39:07.436Z,22.10
2019-05-19T09:41:34.684Z,24.90
2019-05-19T09:44:01.977Z,24.37
2019-05-19T09:46:29.167Z,24.20
2019-05-19T09:49:14.460Z,27.17
2019-05-19T09:51:41.640Z,30.20
2019-05-19T09:54:08.829Z,23.63
2019-05-19T09:56:36.010Z,24.83
2019-05-19T09:59:03.295Z,23.97
2019-05-19T10:01:30.497Z,24.00
2019-05-19T10:03:57.504Z,27.70
2019-05-19T10:06:24.716Z,26.13
2019-05-19T10:08:59.713Z,22.30
2019-05-19T10:12:02.352Z,25.60
2019-05-19T10:14:29.665Z,22.60
2019-05-19T10:16:56.852Z,27.90
2019-05-19T10:19:24.048Z,18.40
2019-05-19T10:21:51.274Z,22.00
2019-05-19T10:24:18.598Z,22.80
2019-05-19T10:26:45.947Z,24.00
2019-05-19T10:29:13.141Z,19.60
2019-05-19T10:31:40.316Z,20.70
2019-05-19T10:34:07.504Z,19.10
2019-05-19T10:36:34.701Z,20.73
2019-05-19T10:39:01.905Z,19.50
2019-05-19T10:41:29.098Z,21.90
2019-05-19T10:44:00.814Z,21.30
2019-05-19T10:46:28.302Z,23.17
2019-05-19T10:48:55.588Z,18.47
2019-05-19T10:51:22.789Z,23.90
2019-05-19T10:53:49.968Z,20.83
2019-05-19T10:56:19.132Z,21.57
2019-05-19T10:58:46.303Z,23.80
2019-05-19T11:01:13.496Z,21.40
2019-05-19T11:03:40.701Z,23.47
2019-05-19T11:06:08.903Z,25.07
2019-05-19T11:08:36.088Z,35.47
2019-05-19T11:11:03.305Z,21.63
2019-05-19T11:13:30.571Z,19.33
2019-05-19T11:15:57.769Z,21.63
2019-05-19T11:18:24.976Z,20.70
2019-05-19T11:20:52.169Z,22.10
2019-05-19T11:23:19.373Z,19.53
2019-05-19T11:25:51.555Z,17.93
2019-05-19T11:28:15.729Z,15.97
2019-05-19T11:30:42.930Z,35.13
2019-05-19T11:33:10.117Z,16.03
2019-05-19T11:35:37.319Z,17.97
2019-05-19T11:38:04.500Z,16.70
2019-05-19T11:40:31.704Z,16.10
2019-05-19T11:42:58.884Z,14.50
2019-05-19T11:45:26.138Z,17.07
2019-05-19T11:47:53.332Z,18.67
2019-05-19T11:50:20.526Z,17.50
2019-05-19T11:52:47.717Z,19.53
2019-05-19T11:55:14.903Z,17.53
2019-05-19T11:57:42.109Z,21.97
2019-05-19T12:00:10.182Z,16.27
2019-05-19T12:02:37.376Z,14.97
2019-05-19T12:05:04.596Z,15.60
2019-05-19T12:07:31.785Z,14.43
2019-05-19T12:09:58.972Z,21.50
2019-05-19T12:12:26.177Z,14.47
2019-05-19T12:14:53.363Z,14.93
2019-05-19T12:17:20.553Z,15.40
2019-05-19T12:19:47.742Z,14.57
2019-05-19T12:22:15.124Z,17.07
2019-05-19T12:24:42.314Z,16.70
2019-05-19T12:27:09.639Z,16.93
2019-05-19T12:29:36.805Z,16.07
2019-05-19T12:32:03.998Z,22.83
2019-05-19T12:34:31.190Z,17.50
2019-05-19T12:36:58.377Z,22.67
2019-05-19T12:39:25.563Z,25.53
2019-05-19T12:41:52.891Z,22.47
2019-05-19T12:44:20.250Z,23.67
2019-05-19T12:46:48.340Z,26.30
2019-05-19T12:49:15.538Z,24.13
2019-05-19T12:51:42.779Z,20.20
2019-05-19T12:54:10.013Z,20.17
2019-05-19T12:56:40.102Z,21.90
2019-05-19T12:59:06.309Z,20.57
2019-05-19T13:01:33.526Z,23.03
2019-05-19T13:04:00.781Z,20.70
2019-05-19T13:06:27.957Z,20.97
2019-05-19T13:08:55.156Z,24.63
2019-05-19T13:11:22.328Z,19.97
2019-05-19T13:13:49.536Z,17.70
2019-05-19T13:16:16.740Z,20.93
2019-05-19T13:18:43.932Z,24.53
2019-05-19T13:21:13.352Z,21.93
2019-05-19T13:23:40.546Z,23.50
2019-05-19T13:26:07.731Z,20.27
2019-05-19T13:28:35.036Z,19.10
2019-05-19T13:31:02.240Z,19.13
2019-05-19T13:33:29.461Z,18.30
2019-05-19T13:35:56.712Z,18.50
2019-05-19T13:38:23.908Z,17.47
2019-05-19T13:40:51.111Z,17.13
2019-05-19T13:43:18.297Z,18.10
2019-05-19T13:45:45.497Z,19.73
2019-05-19T13:48:12.719Z,24.27
2019-05-19T13:50:40.075Z,18.90
2019-05-19T13:53:07.244Z,16.40
2019-05-19T13:55:34.454Z,16.43
2019-05-19T13:58:03.545Z,20.77
2019-05-19T14:00:30.708Z,19.00
2019-05-19T14:02:57.900Z,19.83
2019-05-19T14:05:25.068Z,17.63
2019-05-19T14:07:52.253Z,16.00
2019-05-19T14:10:19.536Z,19.27
2019-05-19T14:12:46.721Z,16.60
2019-05-19T14:15:13.900Z,16.00
2019-05-19T14:17:41.104Z,16.90
2019-05-19T14:20:08.894Z,15.80
2019-05-19T14:22:36.160Z,15.27
2019-05-19T14:25:03.748Z,16.43
2019-05-19T14:27:31.163Z,16.33
2019-05-19T14:29:58.541Z,17.63
2019-05-19T14:32:25.772Z,18.90
2019-05-19T14:34:52.953Z,18.37
2019-05-19T14:37:20.193Z,15.87
2019-05-19T14:39:47.528Z,19.90
2019-05-19T14:42:34.340Z,17.20
2019-05-19T14:45:01.839Z,16.87
2019-05-19T14:47:29.033Z,17.03
2019-05-19T14:49:56.325Z,12.00
2019-05-19T14:52:23.520Z,14.00
2019-05-19T14:54:50.789Z,14.70
2019-05-19T14:57:17.995Z,15.80
2019-05-19T14:59:45.189Z,15.60
2019-05-19T15:02:12.385Z,16.30
2019-05-19T15:04:39.573Z,13.97
2019-05-19T15:07:06.774Z,16.50
2019-05-19T15:09:33.961Z,20.97
2019-05-19T15:12:01.181Z,22.93
2019-05-19T15:14:28.441Z,20.03
2019-05-19T15:16:55.629Z,14.27
2019-05-19T15:19:22.809Z,14.37
2019-05-19T15:21:50.017Z,13.87
2019-05-19T15:24:17.211Z,16.53
2019-05-19T15:26:44.404Z,17.00
2019-05-19T15:29:11.593Z,15.07
2019-05-19T15:31:38.789Z,16.13
2019-05-19T15:34:05.971Z,17.63
2019-05-19T15:36:33.196Z,18.20
2019-05-19T15:39:00.464Z,16.13
2019-05-19T15:41:27.805Z,14.07
2019-05-19T15:43:55.088Z,21.10
2019-05-19T15:46:22.284Z,12.77
2019-05-19T15:48:49.480Z,13.87
2019-05-19T15:51:28.036Z,13.97
2019-05-19T15:53:45.816Z,16.97
2019-05-19T15:56:13.009Z,20.33
2019-05-19T15:58:40.212Z,30.40
2019-05-19T16:01:07.381Z,42.83
2019-05-19T16:03:34.675Z,84.40
2019-05-19T16:06:01.898Z,17.90
2019-05-19T16:08:29.088Z,15.67
2019-05-19T16:10:56.280Z,17.20
2019-05-19T16:13:23.478Z,17.77
2019-05-19T16:15:50.754Z,14.47
2019-05-19T16:18:18.079Z,16.20
2019-05-19T16:20:45.348Z,18.60
2019-05-19T16:23:12.533Z,21.73
2019-05-19T16:25:39.719Z,13.60
2019-05-19T16:28:06.914Z,53.00
2019-05-19T16:30:34.089Z,25.20
2019-05-19T16:33:01.276Z,30.97
2019-05-19T16:35:28.481Z,24.50
2019-05-19T16:37:56.772Z,23.00
2019-05-19T16:40:23.952Z,24.30
2019-05-19T16:42:51.441Z,20.40
2019-05-19T16:45:18.977Z,23.23
2019-05-19T16:47:46.180Z,20.40
2019-05-19T16:50:13.480Z,21.00
2019-05-19T16:52:40.708Z,21.40
2019-05-19T16:55:36.460Z,21.93
2019-05-19T16:58:19.564Z,20.80
2019-05-19T17:00:32.873Z,20.33
2019-05-19T17:03:00.073Z,20.80
2019-05-19T17:05:27.276Z,24.03
2019-05-19T17:07:54.485Z,21.10
2019-05-19T17:10:21.685Z,20.13
2019-05-19T17:12:48.865Z,20.90
2019-05-19T17:15:16.164Z,18.57
2019-05-19T17:17:43.368Z,22.97
2019-05-19T17:20:11.235Z,21.73
2019-05-19T17:22:38.420Z,24.87
2019-05-19T17:25:06.160Z,108.07
2019-05-19T17:27:33.349Z,20.07
2019-05-19T17:30:00.540Z,17.33
2019-05-19T17:32:27.752Z,18.97
2019-05-19T17:34:54.954Z,17.23
2019-05-19T17:37:22.149Z,19.57
2019-05-19T17:39:49.351Z,155.67
2019-05-19T17:42:16.531Z,37.40
2019-05-19T17:44:43.712Z,108.27
2019-05-19T17:47:10.906Z,59.73
2019-05-19T17:49:38.102Z,47.63
2019-05-19T17:52:05.293Z,60.63
2019-05-19T17:54:32.513Z,60.23
2019-05-19T17:57:01.529Z,67.60
2019-05-19T17:59:29.538Z,18.07
2019-05-19T18:01:56.749Z,22.03
2019-05-19T18:04:23.918Z,17.97
2019-05-19T18:06:51.125Z,19.70
2019-05-19T18:09:18.348Z,21.83
2019-05-19T18:11:45.534Z,17.67
2019-05-19T18:14:12.726Z,19.10
2019-05-19T18:16:39.924Z,16.43
2019-05-19T18:19:07.388Z,16.07
2019-05-19T18:21:34.582Z,19.00
2019-05-19T18:24:02.269Z,16.80
2019-05-19T18:26:29.508Z,16.30
2019-05-19T18:28:56.804Z,16.27
2019-05-19T18:31:23.999Z,18.20
2019-05-19T18:33:51.204Z,19.53
2019-05-19T18:36:18.483Z,20.57
2019-05-19T18:38:45.676Z,22.17
2019-05-19T18:41:12.854Z,24.13
2019-05-19T18:43:40.048Z,23.43
2019-05-19T18:46:07.248Z,22.67
2019-05-19T18:48:34.428Z,23.87
2019-05-19T18:51:01.629Z,24.73
2019-05-19T18:53:28.910Z,25.47
2019-05-19T18:55:56.492Z,20.90
2019-05-19T18:58:24.022Z,23.53
2019-05-19T19:00:51.209Z,25.57
2019-05-19T19:03:18.401Z,22.97
2019-05-19T19:05:45.597Z,26.77
2019-05-19T19:08:12.793Z,27.37
2019-05-19T19:10:40.010Z,23.97
2019-05-19T19:13:07.286Z,26.37
2019-05-19T19:15:34.481Z,26.33
2019-05-19T19:18:01.768Z,36.50
2019-05-19T19:20:29.120Z,28.70
2019-05-19T19:22:56.320Z,27.77
2019-05-19T19:25:23.498Z,29.60
2019-05-19T19:27:50.702Z,26.80
2019-05-19T19:30:18.082Z,26.53
2019-05-19T19:32:45.271Z,29.43
2019-05-19T19:35:12.859Z,27.63
2019-05-19T19:37:40.061Z,26.27
2019-05-19T19:40:07.474Z,29.73
2019-05-19T19:42:34.669Z,29.87
2019-05-19T19:45:01.946Z,30.10
2019-05-19T19:47:29.313Z,29.57
2019-05-19T19:49:56.513Z,34.73
2019-05-19T19:52:23.721Z,41.53
2019-05-19T19:54:50.896Z,33.93
2019-05-19T19:57:18.118Z,30.30
2019-05-19T19:59:45.312Z,32.50
2019-05-19T20:02:12.515Z,35.30
2019-05-19T20:04:39.813Z,28.67
2019-05-19T20:07:07.113Z,31.97
2019-05-19T20:09:34.321Z,29.43
2019-05-19T20:12:01.521Z,32.23
2019-05-19T20:14:28.769Z,31.77
2019-05-19T20:16:55.940Z,31.30
2019-05-19T20:19:23.172Z,34.07
2019-05-19T20:21:50.445Z,33.10
2019-05-19T20:24:17.680Z,36.37
2019-05-19T20:26:45.125Z,37.93
2019-05-19T20:29:12.316Z,38.13
2019-05-19T20:31:39.501Z,38.33
2019-05-19T20:34:06.724Z,39.93
2019-05-19T20:36:33.936Z,36.50
2019-05-19T20:39:01.220Z,38.40
2019-05-19T20:41:28.424Z,37.73
2019-05-19T20:43:55.632Z,35.40
2019-05-19T20:46:22.816Z,40.83
2019-05-19T20:48:50.006Z,35.40
2019-05-19T20:51:17.196Z,37.63
2019-05-19T20:53:44.405Z,37.87
2019-05-19T20:56:11.616Z,36.70
2019-05-19T20:58:38.836Z,42.70
2019-05-19T21:01:06.023Z,44.97
2019-05-19T21:03:33.201Z,36.37
2019-05-19T21:06:00.389Z,41.53
2019-05-19T21:08:27.568Z,39.23
2019-05-19T21:10:54.750Z,39.33
2019-05-19T21:13:21.944Z,34.47
2019-05-19T21:15:49.121Z,39.93
2019-05-19T21:18:16.439Z,36.43
2019-05-19T21:20:43.630Z,38.07
2019-05-19T21:23:10.916Z,31.93
2019-05-19T21:25:38.084Z,34.13
2019-05-19T21:28:05.269Z,36.97
2019-05-19T21:30:32.451Z,35.97
2019-05-19T21:32:59.630Z,35.90
2019-05-19T21:35:26.823Z,37.00
2019-05-19T21:37:54.016Z,32.63
2019-05-19T21:40:21.240Z,32.20
2019-05-19T21:42:48.427Z,29.80
2019-05-19T21:45:15.608Z,34.00
2019-05-19T21:47:42.800Z,36.87
2019-05-19T21:50:10.197Z,32.23
2019-05-19T21:52:37.381Z,35.13
2019-05-19T21:55:05.396Z,35.20
2019-05-19T21:57:32.637Z,38.10
2019-05-19T21:59:59.925Z,34.63
2019-05-19T22:02:27.228Z,31.83
2019-05-19T22:04:54.444Z,36.93
2019-05-19T22:07:36.893Z,35.70
2019-05-19T22:10:04.207Z,36.20
2019-05-19T22:12:31.846Z,38.90
2019-05-19T22:14:59.030Z,32.20
2019-05-19T22:17:26.238Z,31.90
2019-05-19T22:19:53.404Z,34.33
2019-05-19T22:22:20.596Z,38.20
2019-05-19T22:24:47.794Z,33.43
2019-05-19T22:27:14.988Z,34.97
2019-05-19T22:29:42.164Z,33.37
2019-05-19T22:32:09.368Z,31.20
2019-05-19T22:34:36.540Z,35.17
2019-05-19T22:37:03.733Z,35.27
2019-05-19T22:39:30.932Z,35.27
2019-05-19T22:41:58.120Z,28.30
2019-05-19T22:44:25.304Z,37.93
2019-05-19T22:46:52.501Z,33.17
2019-05-19T22:49:19.672Z,40.30
2019-05-19T22:51:46.868Z,37.17
2019-05-19T22:54:14.052Z,39.73
2019-05-19T22:56:41.232Z,38.30
2019-05-19T22:59:19.410Z,35.90
2019-05-19T23:01:50.986Z,35.30
2019-05-19T23:04:06.640Z,34.83
2019-05-19T23:06:35.728Z,34.47
2019-05-19T23:09:05.168Z,39.63
2019-05-19T23:11:32.348Z,34.70
2019-05-19T23:13:59.732Z,36.97
2019-05-19T23:16:26.921Z,37.23
2019-05-19T23:18:54.114Z,35.83
2019-05-19T23:21:21.292Z,37.20
2019-05-19T23:23:48.496Z,37.30
2019-05-19T23:26:15.673Z,41.80
2019-05-19T23:28:42.881Z,42.10
2019-05-19T23:31:10.085Z,41.43
2019-05-19T23:33:37.272Z,41.13
2019-05-19T23:36:04.456Z,39.87
2019-05-19T23:38:32.169Z,42.47
2019-05-19T23:40:59.352Z,38.80
2019-05-19T23:43:26.563Z,38.47
2019-05-19T23:45:53.948Z,38.87
2019-05-19T23:48:21.136Z,44.40
2019-05-19T23:50:48.317Z,40.20
2019-05-19T23:53:15.500Z,41.40
2019-05-19T23:55:42.672Z,41.77
2019-05-19T23:58:09.864Z,45.10
